createdAt,value
2019-05-22T04:52:38.166Z,91
2019-05-22T04:54:35.645Z,91
2019-05-22T05:03:25.170Z,91
2019-05-22T05:04:35.474Z,91
2019-05-22T05:12:36.448Z,91
2019-05-22T05:19:31.467Z,91
2019-05-22T05:25:11.930Z,91
2019-05-22T05:30:51.865Z,91
2019-05-22T05:33:29.645Z,91
2019-05-22T05:36:27.900Z,91
2019-05-22T05:41:23.326Z,91
2019-05-22T05:42:35.746Z,91
2019-05-22T05:44:36.255Z,91
2019-05-22T05:46:37.028Z,91
2019-05-22T05:48:36.511Z,91
2019-05-22T05:50:40.802Z,91
2019-05-22T05:52:36.292Z,91
2019-05-22T05:54:36.679Z,91
2019-05-22T05:56:36.777Z,91
2019-05-22T05:58:36.612Z,91
2019-05-22T06:00:36.026Z,91
2019-05-22T06:02:36.439Z,91
2019-05-22T06:04:36.305Z,91
2019-05-22T06:06:36.776Z,91
2019-05-22T06:08:36.260Z,91
2019-05-22T06:10:36.848Z,91
2019-05-22T06:12:36.449Z,91
2019-05-22T06:14:35.946Z,91
2019-05-22T06:16:36.393Z,91
2019-05-22T06:18:36.126Z,91
2019-05-22T06:20:36.593Z,91
2019-05-22T06:22:36.163Z,91
2019-05-22T06:24:36.719Z,91
2019-05-22T06:26:36.157Z,91
2019-05-22T06:28:36.704Z,91
2019-05-22T06:30:36.292Z,91
2019-05-22T06:32:36.882Z,91
2019-05-22T06:34:36.298Z,91
2019-05-22T06:36:36.691Z,89
2019-05-22T06:38:36.065Z,89
2019-05-22T06:40:36.506Z,89
2019-05-22T06:42:36.531Z,91
2019-05-22T06:44:36.079Z,91
2019-05-22T06:46:36.601Z,91
2019-05-22T06:48:36.015Z,91
2019-05-22T06:50:36.497Z,91
2019-05-22T06:52:35.968Z,88
2019-05-22T06:54:36.732Z,88
2019-05-22T06:56:36.189Z,88
2019-05-22T06:58:36.725Z,88
2019-05-22T07:00:36.203Z,88
2019-05-22T07:02:36.836Z,88
2019-05-22T07:04:36.356Z,88
2019-05-22T07:06:36.017Z,87
2019-05-22T07:08:36.533Z,87
2019-05-22T07:10:36.159Z,87
2019-05-22T07:12:36.612Z,85
2019-05-22T07:14:36.185Z,85
2019-05-22T07:16:36.716Z,85
2019-05-22T07:18:36.488Z,85
2019-05-22T07:20:36.405Z,85
2019-05-22T07:22:36.080Z,84
2019-05-22T07:24:37.121Z,84
2019-05-22T07:26:36.188Z,84
2019-05-22T07:28:36.785Z,84
2019-05-22T07:30:36.457Z,84
2019-05-22T07:32:36.135Z,84
2019-05-22T07:34:36.865Z,84
2019-05-22T07:36:36.338Z,84
2019-05-22T07:38:36.016Z,84
2019-05-22T07:40:36.671Z,84
2019-05-22T07:42:36.195Z,83
2019-05-22T07:44:37.275Z,83
2019-05-22T07:46:36.794Z,83
2019-05-22T07:48:36.229Z,83
2019-05-22T07:50:36.996Z,83
2019-05-22T07:52:36.771Z,82
2019-05-22T07:54:36.508Z,82
2019-05-22T07:56:36.110Z,81
2019-05-22T07:58:36.855Z,81
2019-05-22T08:02:36.568Z,81
2019-05-22T08:04:36.283Z,81
2019-05-22T08:06:36.864Z,81
2019-05-22T08:08:36.425Z,81
2019-05-22T08:10:36.074Z,81
2019-05-22T08:12:36.715Z,82
2019-05-22T08:14:36.682Z,82
2019-05-22T08:16:36.374Z,83
2019-05-22T08:18:36.210Z,83
2019-05-22T08:20:36.741Z,83
2019-05-22T08:22:36.251Z,83
2019-05-22T08:24:36.708Z,83
2019-05-22T08:26:55.250Z,83
2019-05-22T08:28:36.557Z,83
2019-05-22T08:30:36.472Z,83
2019-05-22T08:32:36.029Z,83
2019-05-22T08:34:36.796Z,83
2019-05-22T08:36:39.150Z,82
2019-05-22T08:38:36.967Z,82
2019-05-22T08:40:36.635Z,82
2019-05-22T08:42:36.324Z,82
2019-05-22T08:44:36.959Z,82
2019-05-22T08:46:36.585Z,81
2019-05-22T08:48:36.202Z,81
2019-05-22T08:50:37.099Z,81
2019-05-22T08:52:36.942Z,81
2019-05-22T08:54:36.742Z,81
2019-05-22T08:56:36.467Z,81
2019-05-22T08:58:36.385Z,81
2019-05-22T09:00:36.142Z,81
2019-05-22T09:02:37.096Z,80
2019-05-22T09:04:36.675Z,80
2019-05-22T09:06:36.177Z,80
2019-05-22T09:08:36.766Z,80
2019-05-22T09:10:36.425Z,80
2019-05-22T09:12:35.976Z,80
2019-05-22T09:14:36.429Z,80
2019-05-22T09:16:36.026Z,79
2019-05-22T09:18:36.864Z,79
2019-05-22T09:20:50.179Z,79
2019-05-22T09:22:41.945Z,78
2019-05-22T09:24:37.184Z,78
2019-05-22T09:28:34.595Z,78
2019-05-22T09:30:34.342Z,78
2019-05-22T09:32:37.046Z,76
2019-05-22T09:34:36.568Z,76
2019-05-22T09:36:36.099Z,75
2019-05-22T09:38:36.619Z,75
2019-05-22T09:52:38.821Z,75
2019-05-22T09:54:36.233Z,76
2019-05-22T09:56:35.741Z,76
2019-05-22T09:58:36.447Z,75
2019-05-22T10:00:35.952Z,75
2019-05-22T10:02:36.630Z,75
2019-05-22T10:04:36.616Z,75
2019-05-22T10:06:34.761Z,75
2019-05-22T10:08:36.193Z,74
2019-05-22T10:10:35.820Z,74
2019-05-22T10:12:36.498Z,74
2019-05-22T10:14:36.269Z,75
2019-05-22T10:16:35.638Z,75
2019-05-22T10:18:36.349Z,76
2019-05-22T10:20:36.171Z,76
2019-05-22T10:22:35.703Z,76
2019-05-22T10:24:36.465Z,72
2019-05-22T10:26:36.079Z,72
2019-05-22T10:28:35.676Z,72
2019-05-22T10:30:36.412Z,72
2019-05-22T10:32:36.012Z,72
2019-05-22T10:34:35.701Z,71
2019-05-22T10:36:36.412Z,71
2019-05-22T10:38:36.157Z,71
2019-05-22T10:40:36.028Z,71
2019-05-22T10:42:35.631Z,71
2019-05-22T10:44:36.323Z,70
2019-05-22T10:46:36.028Z,70
2019-05-22T10:48:35.570Z,71
2019-05-22T10:50:36.240Z,71
2019-05-22T10:52:35.998Z,71
2019-05-22T10:54:35.513Z,70
2019-05-22T10:56:36.191Z,70
2019-05-22T10:58:35.803Z,70
2019-05-22T11:00:36.501Z,70
2019-05-22T11:02:36.239Z,70
2019-05-22T11:04:35.954Z,69
2019-05-22T11:06:36.951Z,69
2019-05-22T11:08:36.592Z,68
2019-05-22T11:10:36.349Z,68
2019-05-22T11:12:36.206Z,68
2019-05-22T11:14:35.954Z,65
2019-05-22T11:16:35.576Z,65
2019-05-22T11:18:36.323Z,66
2019-05-22T11:20:35.920Z,66
2019-05-22T11:22:36.621Z,66
2019-05-22T11:24:36.135Z,67
2019-05-22T11:26:35.723Z,67
2019-05-22T11:28:36.262Z,70
2019-05-22T11:30:35.880Z,70
2019-05-22T11:32:35.811Z,70
2019-05-22T11:34:36.488Z,69
2019-05-22T11:36:36.083Z,69
2019-05-22T11:38:35.739Z,65
2019-05-22T11:40:36.444Z,65
2019-05-22T11:42:35.991Z,65
2019-05-22T11:44:35.712Z,65
2019-05-22T11:46:36.396Z,65
2019-05-22T11:48:35.945Z,61
2019-05-22T11:50:35.551Z,61
2019-05-22T11:52:36.138Z,61
2019-05-22T11:54:35.661Z,61
2019-05-22T11:56:36.295Z,61
2019-05-22T11:58:35.959Z,62
2019-05-22T12:02:35.672Z,62
2019-05-22T12:04:49.183Z,61
2019-05-22T12:06:35.748Z,61
2019-05-22T12:08:36.399Z,63
2019-05-22T12:10:36.076Z,63
2019-05-22T12:12:36.015Z,63
2019-05-22T12:14:35.600Z,61
2019-05-22T12:16:36.138Z,61
2019-05-22T12:18:35.778Z,62
2019-05-22T12:20:36.468Z,62
2019-05-22T12:22:36.070Z,62
2019-05-22T12:24:38.059Z,62
2019-05-22T12:26:34.214Z,62
2019-05-22T12:28:35.673Z,62
2019-05-22T12:30:36.457Z,62
2019-05-22T12:32:36.316Z,62
2019-05-22T12:34:36.024Z,60
2019-05-22T12:36:36.538Z,60
2019-05-22T12:38:36.007Z,62
2019-05-22T12:40:35.660Z,62
2019-05-22T12:42:36.160Z,62
2019-05-22T12:44:35.635Z,60
2019-05-22T12:46:36.270Z,60
2019-05-22T12:48:35.721Z,60
2019-05-22T12:50:36.324Z,60
2019-05-22T12:52:35.819Z,60
2019-05-22T12:54:52.735Z,64
2019-05-22T12:56:35.782Z,64
2019-05-22T12:58:36.318Z,66
2019-05-22T13:00:35.854Z,66
2019-05-22T13:02:36.531Z,66
2019-05-22T13:04:36.068Z,66
2019-05-22T13:06:35.725Z,66
2019-05-22T13:08:36.232Z,63
2019-05-22T13:10:36.470Z,63
2019-05-22T13:12:36.148Z,63
2019-05-22T13:14:35.947Z,62
2019-05-22T13:16:35.491Z,62
2019-05-22T13:18:36.172Z,62
2019-05-22T13:20:45.062Z,62
2019-05-22T13:22:36.233Z,62
2019-05-22T13:24:35.822Z,62
2019-05-22T13:26:36.404Z,62
2019-05-22T13:28:35.855Z,61
2019-05-22T13:30:36.536Z,61
2019-05-22T13:32:36.087Z,61
2019-05-22T13:34:35.696Z,62
2019-05-22T13:36:36.133Z,62
2019-05-22T13:38:35.717Z,62
2019-05-22T13:40:36.387Z,62
2019-05-22T13:42:35.930Z,62
2019-05-22T13:44:36.539Z,63
2019-05-22T13:46:36.238Z,63
2019-05-22T13:48:35.723Z,63
2019-05-22T13:50:36.453Z,63
2019-05-22T13:52:36.083Z,63
2019-05-22T13:54:35.617Z,66
2019-05-22T13:56:36.324Z,66
2019-05-22T13:58:36.151Z,67
2019-05-22T14:02:35.974Z,67
2019-05-22T14:04:35.961Z,68
2019-05-22T14:06:35.602Z,68
2019-05-22T14:08:36.102Z,67
2019-05-22T14:10:35.657Z,67
2019-05-22T14:12:36.186Z,67
2019-05-22T14:14:35.626Z,70
2019-05-22T14:16:49.737Z,70
2019-05-22T14:18:36.193Z,69
2019-05-22T14:20:35.729Z,69
2019-05-22T14:22:36.280Z,69
2019-05-22T14:24:35.679Z,69
2019-05-22T14:26:36.356Z,69
2019-05-22T14:28:36.071Z,69
2019-05-22T14:30:35.547Z,69
2019-05-22T14:32:36.190Z,69
2019-05-22T14:34:35.690Z,69
2019-05-22T14:36:36.420Z,69
2019-05-22T14:38:35.925Z,69
2019-05-22T14:40:36.389Z,69
2019-05-22T14:42:35.703Z,69
2019-05-22T14:44:36.123Z,69
2019-05-22T14:46:35.436Z,69
2019-05-22T14:48:35.827Z,69
2019-05-22T14:50:36.077Z,69
2019-05-22T14:52:36.459Z,69
2019-05-22T14:54:35.820Z,69
2019-05-22T14:56:36.078Z,69
2019-05-22T14:58:35.325Z,69
2019-05-22T15:00:35.556Z,69
2019-05-22T15:02:36.010Z,69
2019-05-22T15:04:36.237Z,69
2019-05-22T15:06:35.413Z,69
2019-05-22T15:08:35.738Z,69
2019-05-22T15:10:36.066Z,69
2019-05-22T15:12:36.312Z,69
2019-05-22T15:14:35.487Z,70
2019-05-22T15:16:35.796Z,70
2019-05-22T15:18:36.159Z,70
2019-05-22T15:20:35.438Z,70
2019-05-22T15:22:35.801Z,70
2019-05-22T15:24:36.328Z,69
2019-05-22T15:26:35.597Z,69
2019-05-22T15:28:36.117Z,69
2019-05-22T15:30:35.374Z,69
2019-05-22T15:32:35.647Z,69
2019-05-22T15:34:35.926Z,69
2019-05-22T15:36:36.150Z,69
2019-05-22T15:38:35.381Z,68
2019-05-22T15:40:35.709Z,68
2019-05-22T15:42:35.937Z,68
2019-05-22T15:44:36.354Z,69
2019-05-22T15:46:35.604Z,69
2019-05-22T15:48:35.905Z,66
2019-05-22T15:50:36.252Z,66
2019-05-22T15:52:35.678Z,66
2019-05-22T15:54:36.313Z,66
2019-05-22T15:56:35.850Z,66
2019-05-22T15:58:36.312Z,66
2019-05-22T16:02:36.531Z,66
2019-05-22T16:04:35.950Z,66
2019-05-22T16:06:36.881Z,66
2019-05-22T16:08:36.278Z,66
2019-05-22T16:10:35.752Z,66
2019-05-22T16:12:36.270Z,66
2019-05-22T16:14:35.789Z,66
2019-05-22T16:16:36.366Z,66
2019-05-22T16:18:35.865Z,66
2019-05-22T16:20:36.437Z,66
2019-05-22T16:22:35.906Z,66
2019-05-22T16:24:36.494Z,66
2019-05-22T16:26:35.970Z,66
2019-05-22T16:28:36.749Z,67
2019-05-22T16:30:36.323Z,67
2019-05-22T16:32:36.002Z,67
2019-05-22T16:34:36.531Z,70
2019-05-22T16:36:36.059Z,70
2019-05-22T16:38:35.559Z,71
2019-05-22T16:40:36.184Z,71
2019-05-22T16:42:35.698Z,71
2019-05-22T16:44:36.145Z,72
2019-05-22T16:46:35.884Z,72
2019-05-22T16:48:36.365Z,73
2019-05-22T16:50:35.816Z,73
2019-05-22T16:52:35.508Z,73
2019-05-22T16:54:35.959Z,74
2019-05-22T16:56:36.494Z,74
2019-05-22T16:58:35.968Z,74
2019-05-22T17:00:36.485Z,74
2019-05-22T17:02:36.055Z,74
2019-05-22T17:04:35.686Z,75
2019-05-22T17:06:36.210Z,75
2019-05-22T17:08:35.698Z,76
2019-05-22T17:10:36.235Z,76
2019-05-22T17:12:35.743Z,76
2019-05-22T17:14:36.210Z,76
2019-05-22T17:16:35.656Z,76
2019-05-22T17:18:49.102Z,76
2019-05-22T17:20:35.713Z,76
2019-05-22T17:22:36.193Z,76
2019-05-22T17:24:35.858Z,77
2019-05-22T17:26:36.467Z,77
2019-05-22T17:28:35.889Z,78
2019-05-22T17:30:36.366Z,78
2019-05-22T17:32:35.947Z,78
2019-05-22T17:34:36.592Z,78
2019-05-22T17:36:36.102Z,78
2019-05-22T17:38:35.647Z,79
2019-05-22T17:40:36.157Z,79
2019-05-22T17:42:35.709Z,79
2019-05-22T17:44:36.171Z,79
2019-05-22T17:46:36.071Z,79
2019-05-22T17:48:35.586Z,79
2019-05-22T17:50:36.074Z,79
2019-05-22T17:52:35.704Z,79
2019-05-22T17:54:36.417Z,79
2019-05-22T17:56:35.995Z,79
2019-05-22T17:58:36.492Z,79
2019-05-22T18:00:36.203Z,79
2019-05-22T18:02:36.656Z,79
2019-05-22T18:04:36.104Z,80
2019-05-22T18:06:35.671Z,80
2019-05-22T18:08:36.237Z,80
2019-05-22T18:10:41.203Z,80
2019-05-22T18:12:36.119Z,80
2019-05-22T18:14:36.426Z,80
2019-05-22T18:16:35.953Z,80
2019-05-22T18:18:35.740Z,80
2019-05-22T18:20:44.484Z,80
2019-05-22T18:22:35.942Z,80
2019-05-22T18:24:35.542Z,80
2019-05-22T18:26:36.180Z,80
2019-05-22T18:28:35.632Z,80
2019-05-22T18:30:36.199Z,80
2019-05-22T18:32:35.633Z,80
2019-05-22T18:34:36.068Z,80
2019-05-22T18:36:36.437Z,80
2019-05-22T18:38:35.878Z,82
2019-05-22T18:40:36.369Z,82
2019-05-22T18:42:35.890Z,82
2019-05-22T18:44:36.436Z,83
2019-05-22T18:46:35.900Z,83
2019-05-22T18:48:36.418Z,83
2019-05-22T18:50:36.211Z,83
2019-05-22T18:52:41.925Z,83
2019-05-22T18:54:36.860Z,83
2019-05-22T18:56:34.474Z,83
2019-05-22T18:58:33.950Z,84
2019-05-22T19:00:36.226Z,84
2019-05-22T19:02:35.907Z,84
2019-05-22T19:04:37.199Z,84
2019-05-22T19:06:36.010Z,84
2019-05-22T19:08:37.175Z,84
2019-05-22T19:10:35.751Z,84
2019-05-22T19:12:36.371Z,84
2019-05-22T19:14:35.923Z,84
2019-05-22T19:16:36.330Z,84
2019-05-22T19:18:35.967Z,85
2019-05-22T19:20:36.556Z,85
2019-05-22T19:22:35.989Z,85
2019-05-22T19:24:36.692Z,85
2019-05-22T19:26:36.461Z,85
2019-05-22T19:28:44.991Z,85
2019-05-22T19:30:36.433Z,85
2019-05-22T19:32:36.081Z,85
2019-05-22T19:34:35.650Z,85
2019-05-22T19:36:36.272Z,85
2019-05-22T19:38:35.830Z,85
2019-05-22T19:40:36.552Z,85
2019-05-22T19:42:36.079Z,85
2019-05-22T19:44:35.634Z,86
2019-05-22T19:46:36.196Z,86
2019-05-22T19:48:35.655Z,86
2019-05-22T19:50:36.395Z,86
2019-05-22T19:52:42.437Z,86
2019-05-22T19:54:36.159Z,86
2019-05-22T19:56:35.653Z,86
2019-05-22T19:58:36.153Z,87
2019-05-22T20:00:35.720Z,87
2019-05-22T20:02:36.387Z,87
2019-05-22T20:04:36.417Z,87
2019-05-22T20:06:38.851Z,87
2019-05-22T20:08:37.218Z,87
2019-05-22T20:10:35.731Z,87
2019-05-22T20:12:36.231Z,87
2019-05-22T20:14:35.674Z,87
2019-05-22T20:16:36.279Z,87
2019-05-22T20:18:35.861Z,87
2019-05-22T20:20:36.427Z,87
2019-05-22T20:22:35.873Z,87
2019-05-22T20:24:36.376Z,87
2019-05-22T20:26:35.955Z,87
2019-05-22T20:28:36.454Z,87
2019-05-22T20:30:36.096Z,87
2019-05-22T20:32:35.630Z,87
2019-05-22T20:34:36.125Z,87
2019-05-22T20:36:35.695Z,87
2019-05-22T20:38:36.201Z,87
2019-05-22T20:40:36.551Z,87
2019-05-22T20:42:36.084Z,87
2019-05-22T20:44:36.547Z,87
2019-05-22T20:46:38.410Z,87
2019-05-22T20:48:35.941Z,87
2019-05-22T20:50:37.044Z,87
2019-05-22T20:52:35.076Z,87
2019-05-22T20:54:36.649Z,87
2019-05-22T20:56:36.263Z,87
2019-05-22T20:58:35.724Z,87
2019-05-22T21:00:36.297Z,87
2019-05-22T21:02:35.915Z,87
2019-05-22T21:04:36.347Z,87
2019-05-22T21:06:36.063Z,87
2019-05-22T21:08:35.536Z,87
2019-05-22T21:10:35.953Z,87
2019-05-22T21:12:36.697Z,87
2019-05-22T21:14:36.322Z,87
2019-05-22T21:16:35.978Z,87
2019-05-22T21:18:36.535Z,88
2019-05-22T21:20:36.152Z,88
2019-05-22T21:22:35.835Z,88
2019-05-22T21:24:36.973Z,88
2019-05-22T21:26:36.489Z,88
2019-05-22T21:28:35.984Z,88
2019-05-22T21:30:36.551Z,88
2019-05-22T21:32:36.038Z,88
2019-05-22T21:34:36.598Z,88
2019-05-22T21:36:36.116Z,88
2019-05-22T21:38:35.560Z,88
2019-05-22T21:40:36.074Z,88
2019-05-22T21:42:35.633Z,88
2019-05-22T21:44:36.120Z,88
2019-05-22T21:54:37.445Z,88
2019-05-22T21:56:36.005Z,88
2019-05-22T21:58:35.752Z,88
2019-05-22T22:00:36.439Z,88
2019-05-22T22:02:35.952Z,88
2019-05-22T22:04:36.326Z,88
2019-05-22T22:06:35.872Z,88
2019-05-22T22:08:36.701Z,88
2019-05-22T22:10:36.351Z,88
2019-05-22T22:12:35.806Z,88
2019-05-22T22:14:36.702Z,88
2019-05-22T22:16:36.286Z,88
2019-05-22T22:18:36.063Z,88
2019-05-22T22:20:35.646Z,89
2019-05-22T22:22:36.282Z,89
2019-05-22T22:24:35.844Z,89
2019-05-22T22:26:36.725Z,89
2019-05-22T22:28:36.427Z,89
2019-05-22T22:30:36.011Z,89
2019-05-22T22:32:36.519Z,89
2019-05-22T22:34:36.036Z,89
2019-05-22T22:36:36.659Z,89
2019-05-22T22:38:36.209Z,89
2019-05-22T22:40:35.837Z,89
2019-05-22T22:42:37.532Z,89
2019-05-22T22:44:36.005Z,89
2019-05-22T22:46:36.511Z,89
2019-05-22T22:48:35.963Z,89
2019-05-22T22:50:36.546Z,89
2019-05-22T22:52:36.045Z,89
2019-05-22T22:54:36.560Z,90
2019-05-22T22:56:36.087Z,90
2019-05-22T22:58:36.649Z,90
2019-05-22T23:00:36.254Z,90
2019-05-22T23:02:36.752Z,90
2019-05-22T23:04:36.197Z,90
2019-05-22T23:06:36.950Z,90
2019-05-22T23:08:36.480Z,90
2019-05-22T23:10:36.105Z,90
2019-05-22T23:12:35.736Z,90
2019-05-22T23:14:36.219Z,90
2019-05-22T23:16:35.659Z,90
2019-05-22T23:18:39.183Z,90
2019-05-22T23:20:42.608Z,90
2019-05-22T23:22:42.039Z,90
2019-05-22T23:24:42.627Z,90
2019-05-22T23:26:42.180Z,90
2019-05-22T23:28:42.755Z,90
2019-05-22T23:30:42.237Z,90
2019-05-22T23:32:42.643Z,90
2019-05-22T23:34:42.110Z,90
2019-05-22T23:36:42.624Z,90
2019-05-22T23:38:42.111Z,90
2019-05-22T23:40:42.717Z,90
2019-05-22T23:42:42.157Z,90
2019-05-22T23:44:42.643Z,90
2019-05-22T23:46:42.140Z,90
2019-05-22T23:48:42.626Z,90
2019-05-22T23:50:42.183Z,90
2019-05-22T23:52:42.736Z,90
2019-05-22T23:54:42.284Z,90
2019-05-22T23:56:42.769Z,90
2019-05-22T23:58:53.685Z,90
